Terminal Aerodrome Forecast
Issued by NWS

Home | Current Version | Previous Version | Text Only | Print | Product List | Glossary On
Versions: 1 2 3 4 5 6 7 8 9 10 11 12 13 14 15 16 17 18 19 20 21 22
000
FTUS42 KFFC 302340
TAFRYY
TAF
KRYY 302340Z 3100/3124 31010KT P6SM FEW050 SCT070
     FM310200 01008KT P6SM FEW040 SCT100
     FM311000 06004KT P6SM SCT080 SCT250
     FM311500 03005KT P6SM FEW050
     FM312100 34008KT P6SM SCT060
      AMD NOT SKED 3104/3112=

USA.gov is the U.S. government's official web portal to all federal, state and local government web resources and services.